Time;durP1;ratioP1;P1;durP2;ratioP2;P2;SDS_P1;SDS_P2;PMS_P1;PMS_P2;Temp;Humidity;BMP_temperature;BMP_pressure;BME280_temperature;BME280_humidity;BME280_pressure;Samples;Min_cycle;Max_cycle;Signal;HPM_P1;HPM_P2
2023/12/04 00:00:00;;;;;;;33.75;21.35;;;;;;;;;;7364882;19;20246;-82
2023/12/04 00:02:26;;;;;;;35.70;22.33;;;;;;;;;;7362140;19;20007;-81
2023/12/04 00:04:51;;;;;;;35.42;22.42;;;;;;;;;;7364062;19;20002;-80
2023/12/04 00:07:16;;;;;;;34.20;22.48;;;;;;;;;;7357623;19;20035;-84
2023/12/04 00:09:41;;;;;;;36.00;22.95;;;;;;;;;;7352534;19;20449;-88
2023/12/04 00:12:07;;;;;;;36.33;21.88;;;;;;;;;;7361819;19;20327;-79
2023/12/04 00:14:32;;;;;;;35.88;22.00;;;;;;;;;;7361460;19;20018;-83
2023/12/04 00:16:57;;;;;;;36.05;22.25;;;;;;;;;;7366717;19;20334;-88
2023/12/04 00:19:23;;;;;;;36.30;23.08;;;;;;;;;;7357671;19;20006;-81
2023/12/04 00:21:48;;;;;;;34.80;22.45;;;;;;;;;;7361885;19;20022;-81
2023/12/04 00:24:13;;;;;;;35.92;21.73;;;;;;;;;;7366170;19;20471;-85
2023/12/04 00:26:38;;;;;;;35.20;21.32;;;;;;;;;;7365148;19;20129;-82
2023/12/04 00:29:03;;;;;;;35.20;21.72;;;;;;;;;;7361564;19;20006;-82
2023/12/04 00:31:28;;;;;;;35.03;21.77;;;;;;;;;;7365173;19;20309;-81
2023/12/04 00:33:54;;;;;;;35.75;22.90;;;;;;;;;;7361579;19;19995;-82
2023/12/04 00:36:19;;;;;;;37.53;21.98;;;;;;;;;;7359539;19;20006;-85
2023/12/04 00:38:45;;;;;;;36.42;22.95;;;;;;;;;;7363184;19;20014;-86
2023/12/04 00:41:10;;;;;;;35.47;22.00;;;;;;;;;;7365304;19;20449;-84
2023/12/04 00:43:36;;;;;;;33.60;21.15;;;;;;;;;;7356619;19;20070;-82
2023/12/04 00:46:01;;;;;;;34.90;22.15;;;;;;;;;;7358773;19;20007;-80
2023/12/04 00:48:26;;;;;;;32.17;20.42;;;;;;;;;;7358304;19;20985;-83
2023/12/04 00:50:51;;;;;;;33.25;21.30;;;;;;;;;;7364085;19;19998;-84
2023/12/04 00:53:16;;;;;;;35.50;21.52;;;;;;;;;;7362678;19;20256;-85
2023/12/04 00:55:41;;;;;;;35.65;20.77;;;;;;;;;;7359743;19;19995;-82
2023/12/04 00:58:06;;;;;;;34.90;21.73;;;;;;;;;;7295798;19;20010;-83
2023/12/04 01:00:32;;;;;;;32.56;20.66;;;;;;;;;;7352562;19;20444;-81
2023/12/04 01:02:57;;;;;;;32.40;20.73;;;;;;;;;;7358094;19;20002;-84
2023/12/04 01:05:22;;;;;;;36.35;21.60;;;;;;;;;;7361191;19;20250;-81
2023/12/04 01:07:47;;;;;;;35.97;21.30;;;;;;;;;;7365950;19;20239;-82
2023/12/04 01:10:12;;;;;;;35.45;21.77;;;;;;;;;;7303061;19;20608;-85
2023/12/04 01:12:38;;;;;;;34.35;21.05;;;;;;;;;;7344836;19;20455;-83
2023/12/04 01:15:03;;;;;;;34.30;20.73;;;;;;;;;;7365880;19;20025;-82
2023/12/04 01:17:28;;;;;;;32.33;20.15;;;;;;;;;;7333180;19;20019;-86
2023/12/04 01:19:53;;;;;;;30.90;19.33;;;;;;;;;;7346588;19;20041;-80
2023/12/04 01:22:19;;;;;;;31.30;20.33;;;;;;;;;;7356899;19;20017;-82
2023/12/04 01:24:44;;;;;;;31.23;19.52;;;;;;;;;;7353739;19;20002;-82
2023/12/04 01:27:09;;;;;;;34.50;20.40;;;;;;;;;;7365866;19;19999;-83
2023/12/04 01:29:34;;;;;;;30.45;19.15;;;;;;;;;;7359989;19;20246;-80
2023/12/04 01:31:59;;;;;;;29.70;19.10;;;;;;;;;;7362368;19;20002;-84
2023/12/04 01:34:24;;;;;;;32.75;19.38;;;;;;;;;;7358541;19;20045;-84
2023/12/04 01:36:50;;;;;;;30.73;19.50;;;;;;;;;;7360361;19;20001;-85
2023/12/04 01:39:15;;;;;;;31.05;19.13;;;;;;;;;;7355265;19;20002;-80
2023/12/04 01:41:40;;;;;;;29.27;18.50;;;;;;;;;;7365048;19;19998;-81
2023/12/04 01:44:05;;;;;;;29.52;18.90;;;;;;;;;;7372267;19;20034;-80
2023/12/04 01:46:30;;;;;;;30.73;19.05;;;;;;;;;;7362840;19;20038;-84
2023/12/04 01:48:56;;;;;;;29.23;18.52;;;;;;;;;;7370808;19;19998;-86
2023/12/04 01:51:21;;;;;;;29.67;17.50;;;;;;;;;;7338978;19;20034;-82
2023/12/04 01:53:46;;;;;;;28.02;16.55;;;;;;;;;;7366119;19;20014;-81
2023/12/04 01:56:13;;;;;;;28.30;18.48;;;;;;;;;;7369271;19;20021;-81
2023/12/04 01:58:38;;;;;;;27.85;17.63;;;;;;;;;;7366354;19;19998;-85
2023/12/04 02:01:04;;;;;;;28.90;17.95;;;;;;;;;;7368842;19;20002;-85
2023/12/04 02:03:29;;;;;;;28.15;17.63;;;;;;;;;;7354552;19;20025;-85
2023/12/04 02:05:58;;;;;;;24.80;16.13;;;;;;;;;;7364362;19;20429;-81
2023/12/04 02:08:24;;;;;;;25.55;15.77;;;;;;;;;;7362495;19;20375;-82
2023/12/04 02:10:49;;;;;;;27.48;16.75;;;;;;;;;;7367632;19;20042;-82
2023/12/04 02:13:14;;;;;;;26.88;17.17;;;;;;;;;;7371629;19;20125;-82
2023/12/04 02:15:40;;;;;;;25.38;16.17;;;;;;;;;;7358241;19;20845;-82
2023/12/04 02:18:05;;;;;;;29.25;17.40;;;;;;;;;;7288976;19;20003;-90
2023/12/04 02:20:30;;;;;;;25.15;16.05;;;;;;;;;;7271782;19;20301;-85
2023/12/04 02:22:56;;;;;;;25.15;16.30;;;;;;;;;;7278879;19;20528;-87
2023/12/04 02:25:21;;;;;;;27.65;16.63;;;;;;;;;;7277000;19;20938;-87
2023/12/04 02:27:50;;;;;;;26.17;16.55;;;;;;;;;;7274202;19;20818;-88
2023/12/04 02:30:18;;;;;;;26.70;15.40;;;;;;;;;;7278267;19;20327;-88
2023/12/04 02:32:45;;;;;;;26.17;15.93;;;;;;;;;;7276233;19;20499;-87
2023/12/04 02:35:11;;;;;;;26.13;15.43;;;;;;;;;;7270010;19;20439;-86
2023/12/04 02:37:36;;;;;;;23.52;15.25;;;;;;;;;;7252403;19;20834;-87
2023/12/04 02:40:02;;;;;;;23.63;14.70;;;;;;;;;;7276388;19;19986;-87
2023/12/04 02:42:27;;;;;;;23.92;15.05;;;;;;;;;;7271782;19;20258;-84
2023/12/04 02:44:53;;;;;;;23.23;14.95;;;;;;;;;;7269310;19;20439;-88
2023/12/04 02:47:18;;;;;;;23.25;14.05;;;;;;;;;;7267124;19;20327;-86
2023/12/04 02:49:44;;;;;;;22.48;14.27;;;;;;;;;;7264693;19;20488;-86
2023/12/04 02:52:09;;;;;;;24.60;14.90;;;;;;;;;;7263567;19;20069;-89
2023/12/04 02:54:34;;;;;;;24.55;14.88;;;;;;;;;;7267113;19;19999;-88
2023/12/04 02:56:59;;;;;;;21.83;14.15;;;;;;;;;;7265865;19;21223;-89
2023/12/04 02:59:24;;;;;;;20.90;13.30;;;;;;;;;;7271405;19;20307;-90
2023/12/04 03:01:50;;;;;;;25.77;14.68;;;;;;;;;;7263143;19;20551;-89
2023/12/04 03:04:15;;;;;;;21.77;13.70;;;;;;;;;;7274561;19;20141;-87
2023/12/04 03:06:40;;;;;;;22.80;14.25;;;;;;;;;;7228523;19;20009;-85
2023/12/04 03:09:05;;;;;;;20.70;13.10;;;;;;;;;;7266839;19;20251;-85
2023/12/04 03:11:31;;;;;;;23.02;13.85;;;;;;;;;;7235201;19;20602;-87
2023/12/04 03:13:56;;;;;;;21.13;13.80;;;;;;;;;;7276139;19;20538;-86
2023/12/04 03:16:21;;;;;;;21.92;13.55;;;;;;;;;;7278870;19;20514;-87
2023/12/04 03:18:46;;;;;;;22.73;14.00;;;;;;;;;;7364899;19;20782;-86
2023/12/04 03:21:12;;;;;;;21.30;13.95;;;;;;;;;;7360806;19;20006;-80
2023/12/04 03:23:37;;;;;;;22.48;13.65;;;;;;;;;;7361841;19;21175;-81
2023/12/04 03:26:02;;;;;;;21.80;13.07;;;;;;;;;;7369570;19;20092;-83
2023/12/04 03:28:28;;;;;;;19.00;12.23;;;;;;;;;;7364308;19;20002;-84
2023/12/04 03:30:53;;;;;;;19.35;12.40;;;;;;;;;;7366510;19;19998;-83
2023/12/04 03:33:18;;;;;;;21.66;13.28;;;;;;;;;;7360216;19;20052;-83
2023/12/04 03:35:44;;;;;;;19.02;12.52;;;;;;;;;;7365400;19;20040;-85
2023/12/04 03:38:09;;;;;;;20.73;13.05;;;;;;;;;;7367965;19;20546;-83
2023/12/04 03:40:34;;;;;;;19.42;11.85;;;;;;;;;;7367433;19;19994;-80
2023/12/04 03:42:59;;;;;;;19.48;12.45;;;;;;;;;;7362469;19;19995;-81
2023/12/04 03:45:24;;;;;;;19.98;12.48;;;;;;;;;;7369884;19;20013;-86
2023/12/04 03:47:49;;;;;;;18.92;12.05;;;;;;;;;;7360680;19;19997;-82
2023/12/04 03:50:15;;;;;;;19.90;12.18;;;;;;;;;;7369342;19;20717;-82
2023/12/04 03:52:41;;;;;;;19.38;12.40;;;;;;;;;;7367048;19;20236;-82
2023/12/04 03:55:06;;;;;;;19.08;11.85;;;;;;;;;;7365924;19;20002;-80
2023/12/04 03:57:32;;;;;;;20.33;11.73;;;;;;;;;;7355182;19;20022;-80
2023/12/04 03:59:57;;;;;;;18.20;11.68;;;;;;;;;;7365771;19;20018;-84
2023/12/04 04:02:22;;;;;;;19.48;12.32;;;;;;;;;;7364575;19;20170;-82
2023/12/04 04:04:47;;;;;;;20.17;12.38;;;;;;;;;;7363212;19;20038;-85
2023/12/04 04:07:15;;;;;;;18.90;11.02;;;;;;;;;;7368766;19;20344;-80
2023/12/04 04:09:40;;;;;;;17.10;10.68;;;;;;;;;;7363408;19;19998;-84
2023/12/04 04:12:05;;;;;;;18.33;11.57;;;;;;;;;;7368805;19;20005;-82
2023/12/04 04:14:31;;;;;;;16.75;10.80;;;;;;;;;;7358793;19;20090;-87
2023/12/04 04:16:56;;;;;;;18.95;11.50;;;;;;;;;;7350531;19;20522;-82
2023/12/04 04:19:21;;;;;;;18.27;10.65;;;;;;;;;;7369575;19;20021;-79
2023/12/04 04:21:46;;;;;;;15.48;10.32;;;;;;;;;;7357952;19;20367;-88
2023/12/04 04:24:11;;;;;;;17.20;10.15;;;;;;;;;;7365577;19;19999;-86
2023/12/04 04:26:36;;;;;;;17.65;10.98;;;;;;;;;;7358528;19;20266;-84
2023/12/04 04:29:02;;;;;;;14.52;9.52;;;;;;;;;;7363939;19;20035;-86
2023/12/04 04:31:27;;;;;;;17.55;10.07;;;;;;;;;;7359764;19;20231;-81
2023/12/04 04:33:52;;;;;;;16.48;10.05;;;;;;;;;;7354331;19;20009;-84
2023/12/04 04:36:17;;;;;;;15.56;9.06;;;;;;;;;;7364723;19;20480;-83
2023/12/04 04:38:42;;;;;;;15.43;9.70;;;;;;;;;;7361319;19;20003;-82
2023/12/04 04:41:12;;;;;;;17.25;9.80;;;;;;;;;;7358923;19;20236;-86
2023/12/04 04:43:38;;;;;;;15.30;9.38;;;;;;;;;;7355902;19;20737;-84
2023/12/04 04:46:03;;;;;;;16.35;9.73;;;;;;;;;;7364479;19;20001;-85
2023/12/04 04:48:28;;;;;;;15.45;9.23;;;;;;;;;;7359613;19;20595;-83
2023/12/04 04:50:53;;;;;;;15.98;9.65;;;;;;;;;;7365736;19;20679;-80
2023/12/04 04:53:19;;;;;;;15.93;9.25;;;;;;;;;;7362114;19;19999;-81
2023/12/04 04:55:44;;;;;;;13.02;8.45;;;;;;;;;;7360974;19;20021;-88
2023/12/04 04:58:09;;;;;;;14.23;8.75;;;;;;;;;;7354881;19;19999;-84
2023/12/04 05:00:34;;;;;;;14.02;8.27;;;;;;;;;;7365486;19;20007;-86
2023/12/04 05:02:59;;;;;;;15.85;9.40;;;;;;;;;;7359460;19;20701;-80
2023/12/04 05:05:24;;;;;;;15.82;8.50;;;;;;;;;;7361888;19;20024;-82
2023/12/04 05:07:49;;;;;;;14.13;8.93;;;;;;;;;;7363268;19;20257;-79
2023/12/04 05:10:15;;;;;;;13.45;8.77;;;;;;;;;;7362022;19;20090;-84
2023/12/04 05:12:40;;;;;;;14.65;8.70;;;;;;;;;;7359655;19;20246;-86
2023/12/04 05:15:05;;;;;;;13.32;7.82;;;;;;;;;;7365859;19;19998;-81
2023/12/04 05:17:30;;;;;;;12.50;7.60;;;;;;;;;;7369586;19;20038;-80
2023/12/04 05:19:55;;;;;;;13.45;8.15;;;;;;;;;;7373789;19;20003;-81
2023/12/04 05:22:21;;;;;;;14.43;8.30;;;;;;;;;;7366418;19;20700;-84
2023/12/04 05:24:46;;;;;;;14.20;7.97;;;;;;;;;;7365222;19;20483;-81
2023/12/04 05:27:11;;;;;;;16.33;8.35;;;;;;;;;;7374781;19;20021;-85
2023/12/04 05:29:36;;;;;;;13.55;7.90;;;;;;;;;;7369363;19;20003;-82
2023/12/04 05:32:01;;;;;;;13.02;7.72;;;;;;;;;;7360233;19;20383;-83
2023/12/04 05:34:26;;;;;;;12.93;7.32;;;;;;;;;;7371594;19;19999;-82
2023/12/04 05:36:52;;;;;;;13.73;7.68;;;;;;;;;;7365428;19;20440;-82
2023/12/04 05:39:17;;;;;;;13.75;8.18;;;;;;;;;;7369289;19;20331;-84
2023/12/04 05:41:42;;;;;;;12.75;7.22;;;;;;;;;;7366270;19;20751;-86
2023/12/04 05:44:07;;;;;;;13.68;7.63;;;;;;;;;;7371571;19;20118;-87
2023/12/04 05:46:32;;;;;;;16.08;10.05;;;;;;;;;;7368049;19;19999;-81
2023/12/04 05:48:57;;;;;;;14.43;8.95;;;;;;;;;;7364200;19;19999;-88
2023/12/04 05:51:23;;;;;;;12.13;7.20;;;;;;;;;;7364892;19;20647;-81
2023/12/04 05:53:48;;;;;;;15.35;8.30;;;;;;;;;;7369282;19;20098;-80
2023/12/04 05:56:13;;;;;;;12.00;7.18;;;;;;;;;;7372011;19;19998;-85
2023/12/04 05:58:38;;;;;;;10.07;5.75;;;;;;;;;;7368125;19;20001;-83
2023/12/04 06:01:04;;;;;;;9.05;5.35;;;;;;;;;;7365992;19;20010;-83
2023/12/04 06:03:29;;;;;;;11.63;6.22;;;;;;;;;;7364636;19;20735;-85
2023/12/04 06:05:54;;;;;;;9.70;5.07;;;;;;;;;;7370007;19;20537;-82
2023/12/04 06:08:19;;;;;;;9.18;5.03;;;;;;;;;;7372301;19;19994;-80
2023/12/04 06:10:45;;;;;;;10.25;5.93;;;;;;;;;;7363203;19;20014;-87
2023/12/04 06:13:10;;;;;;;8.65;5.32;;;;;;;;;;7368307;19;20074;-80
2023/12/04 06:15:36;;;;;;;9.98;5.40;;;;;;;;;;7367662;19;20077;-87
2023/12/04 06:18:01;;;;;;;10.68;5.75;;;;;;;;;;7362808;19;20352;-83
2023/12/04 06:20:26;;;;;;;10.68;5.22;;;;;;;;;;7373756;19;20356;-82
2023/12/04 06:22:51;;;;;;;11.15;5.78;;;;;;;;;;7366618;19;20263;-82
2023/12/04 06:25:17;;;;;;;9.45;5.32;;;;;;;;;;7363548;19;19998;-81
2023/12/04 06:27:42;;;;;;;10.65;5.78;;;;;;;;;;7363974;19;19999;-81
2023/12/04 06:30:07;;;;;;;9.23;5.15;;;;;;;;;;7368076;19;20743;-82
2023/12/04 06:32:33;;;;;;;9.05;5.50;;;;;;;;;;7367453;19;20014;-82
2023/12/04 06:34:58;;;;;;;12.30;6.40;;;;;;;;;;7364733;19;20010;-84
2023/12/04 06:37:23;;;;;;;10.98;6.15;;;;;;;;;;7364791;19;20010;-82
2023/12/04 06:39:49;;;;;;;10.82;5.95;;;;;;;;;;7364738;19;19994;-86
2023/12/04 06:42:15;;;;;;;11.02;6.18;;;;;;;;;;7368072;19;19998;-86
2023/12/04 06:44:40;;;;;;;11.57;5.95;;;;;;;;;;7365505;19;20383;-85
2023/12/04 06:47:07;;;;;;;10.00;5.97;;;;;;;;;;7362766;19;20506;-88
2023/12/04 06:49:32;;;;;;;11.93;5.95;;;;;;;;;;7352733;19;20782;-87
2023/12/04 06:51:58;;;;;;;13.10;6.38;;;;;;;;;;7360464;19;19998;-80
2023/12/04 06:54:23;;;;;;;11.63;5.90;;;;;;;;;;7365981;19;20006;-83
2023/12/04 06:56:48;;;;;;;11.05;6.25;;;;;;;;;;7367278;19;20090;-85
2023/12/04 06:59:13;;;;;;;8.60;5.40;;;;;;;;;;7361651;19;20101;-84
2023/12/04 07:01:39;;;;;;;10.35;6.20;;;;;;;;;;7364598;19;20231;-82
2023/12/04 07:04:10;;;;;;;11.60;6.18;;;;;;;;;;7363774;19;20186;-79
2023/12/04 07:06:36;;;;;;;11.93;6.93;;;;;;;;;;7369374;19;20006;-81
2023/12/04 07:09:01;;;;;;;13.63;6.80;;;;;;;;;;7363031;19;20017;-86
2023/12/04 07:11:26;;;;;;;11.48;6.57;;;;;;;;;;7360953;19;20002;-80
2023/12/04 07:13:51;;;;;;;12.20;7.07;;;;;;;;;;7349973;19;20275;-87
2023/12/04 07:16:17;;;;;;;11.43;6.82;;;;;;;;;;7363250;19;20012;-85
2023/12/04 07:18:42;;;;;;;11.93;6.80;;;;;;;;;;7368380;19;20263;-79
2023/12/04 07:21:07;;;;;;;12.40;6.95;;;;;;;;;;7368001;19;19995;-85
2023/12/04 07:23:32;;;;;;;13.73;7.43;;;;;;;;;;7366042;19;20021;-84
2023/12/04 07:25:58;;;;;;;14.27;8.07;;;;;;;;;;7370843;19;19994;-83
2023/12/04 07:28:24;;;;;;;14.13;7.65;;;;;;;;;;7365544;19;20259;-87
2023/12/04 07:30:49;;;;;;;11.38;6.65;;;;;;;;;;7359815;19;20345;-85
2023/12/04 07:33:14;;;;;;;12.63;7.30;;;;;;;;;;7363940;19;20343;-85
2023/12/04 07:35:39;;;;;;;10.80;6.47;;;;;;;;;;7371548;19;20534;-88
2023/12/04 07:38:04;;;;;;;13.40;7.73;;;;;;;;;;7361108;19;20006;-85
2023/12/04 07:40:30;;;;;;;12.32;7.13;;;;;;;;;;7364466;19;20348;-80
2023/12/04 07:42:55;;;;;;;12.63;7.88;;;;;;;;;;7362949;19;20497;-85
2023/12/04 07:45:21;;;;;;;12.18;7.75;;;;;;;;;;7369813;19;20232;-79
2023/12/04 07:47:46;;;;;;;13.63;8.02;;;;;;;;;;7360500;19;20315;-86
2023/12/04 07:50:11;;;;;;;10.88;6.30;;;;;;;;;;7364677;19;20296;-83
2023/12/04 07:52:36;;;;;;;11.25;7.18;;;;;;;;;;7366659;19;19999;-82
2023/12/04 07:55:01;;;;;;;11.73;6.88;;;;;;;;;;7358878;19;20010;-84
2023/12/04 07:57:27;;;;;;;10.50;6.63;;;;;;;;;;7365506;19;20030;-87
2023/12/04 07:59:53;;;;;;;12.10;7.35;;;;;;;;;;7360795;19;20791;-85
2023/12/04 08:02:18;;;;;;;12.32;7.57;;;;;;;;;;7355215;19;20251;-82
2023/12/04 08:04:43;;;;;;;11.98;7.32;;;;;;;;;;7364496;19;20034;-82
2023/12/04 08:07:09;;;;;;;13.75;7.50;;;;;;;;;;7365581;19;20862;-82
2023/12/04 08:09:34;;;;;;;13.40;7.68;;;;;;;;;;7367540;19;19999;-85
2023/12/04 08:11:59;;;;;;;11.02;7.05;;;;;;;;;;7361837;19;20743;-81
2023/12/04 08:14:24;;;;;;;12.80;7.45;;;;;;;;;;7361793;19;20521;-88
2023/12/04 08:16:49;;;;;;;9.98;6.50;;;;;;;;;;7362005;19;20227;-81
2023/12/04 08:19:15;;;;;;;14.40;7.60;;;;;;;;;;7365706;19;19995;-80
2023/12/04 08:21:40;;;;;;;12.77;7.53;;;;;;;;;;7366240;19;20244;-82
2023/12/04 08:24:05;;;;;;;13.35;7.88;;;;;;;;;;7358412;19;20022;-81
2023/12/04 08:26:31;;;;;;;14.00;8.30;;;;;;;;;;7355225;19;19995;-83
2023/12/04 08:28:56;;;;;;;14.98;7.88;;;;;;;;;;7362161;19;20041;-81
2023/12/04 08:31:21;;;;;;;13.45;7.50;;;;;;;;;;7363399;19;20805;-84
2023/12/04 08:33:47;;;;;;;13.00;7.65;;;;;;;;;;7363823;19;20017;-80
2023/12/04 08:36:12;;;;;;;13.63;7.95;;;;;;;;;;7363340;19;20006;-83
2023/12/04 08:38:37;;;;;;;12.20;7.30;;;;;;;;;;7364609;19;20010;-85
2023/12/04 08:41:03;;;;;;;12.38;7.55;;;;;;;;;;7365799;19;19999;-80
2023/12/04 08:43:29;;;;;;;14.60;8.18;;;;;;;;;;7361791;19;20006;-79
2023/12/04 08:45:54;;;;;;;13.85;8.07;;;;;;;;;;7365725;19;20455;-84
2023/12/04 08:48:19;;;;;;;14.10;8.50;;;;;;;;;;7364574;19;20390;-85
2023/12/04 08:50:45;;;;;;;17.02;8.40;;;;;;;;;;7366770;19;19995;-81
2023/12/04 08:53:10;;;;;;;13.02;7.63;;;;;;;;;;7357015;19;20259;-83
2023/12/04 08:55:35;;;;;;;14.77;8.68;;;;;;;;;;7365154;19;20009;-83
2023/12/04 08:58:00;;;;;;;14.63;8.43;;;;;;;;;;7361560;19;20384;-83
2023/12/04 09:00:25;;;;;;;14.30;8.65;;;;;;;;;;7366316;19;19995;-83
2023/12/04 09:02:51;;;;;;;14.13;8.57;;;;;;;;;;7355225;19;20279;-83
2023/12/04 09:05:16;;;;;;;13.45;8.20;;;;;;;;;;7368231;19;20024;-83
2023/12/04 09:07:41;;;;;;;15.63;9.00;;;;;;;;;;7364323;19;20007;-81
2023/12/04 09:10:06;;;;;;;15.70;9.80;;;;;;;;;;7354930;19;20003;-82
2023/12/04 09:12:32;;;;;;;14.30;8.65;;;;;;;;;;7365999;19;19999;-82
2023/12/04 09:14:57;;;;;;;13.73;8.32;;;;;;;;;;7363565;19;20030;-81
2023/12/04 09:17:22;;;;;;;14.73;8.52;;;;;;;;;;7364747;19;20029;-83
2023/12/04 09:19:47;;;;;;;15.88;9.45;;;;;;;;;;7369130;19;19991;-83
2023/12/04 09:22:12;;;;;;;16.35;8.77;;;;;;;;;;7362389;19;20243;-83
2023/12/04 09:24:38;;;;;;;15.85;9.40;;;;;;;;;;7364755;19;20006;-83
2023/12/04 09:27:03;;;;;;;14.20;8.95;;;;;;;;;;7363907;19;20028;-83
2023/12/04 09:29:28;;;;;;;17.15;9.32;;;;;;;;;;7364778;19;20030;-84
2023/12/04 09:31:53;;;;;;;15.13;9.40;;;;;;;;;;7360766;19;19995;-83
2023/12/04 09:34:20;;;;;;;14.88;8.80;;;;;;;;;;7367133;19;20002;-86
2023/12/04 09:36:45;;;;;;;15.82;10.27;;;;;;;;;;7363466;19;20341;-83
2023/12/04 09:39:10;;;;;;;15.98;10.00;;;;;;;;;;7362282;19;20441;-83
2023/12/04 09:41:36;;;;;;;18.05;10.10;;;;;;;;;;7367586;19;20008;-85
2023/12/04 09:44:02;;;;;;;18.90;11.13;;;;;;;;;;7360981;19;20351;-81
2023/12/04 09:46:27;;;;;;;19.70;11.50;;;;;;;;;;7360326;19;20009;-84
2023/12/04 09:48:53;;;;;;;19.80;11.63;;;;;;;;;;7366579;19;20438;-81
2023/12/04 09:51:18;;;;;;;18.48;11.20;;;;;;;;;;7363255;19;20029;-84
2023/12/04 09:53:46;;;;;;;20.67;11.43;;;;;;;;;;7365004;19;20006;-81
2023/12/04 09:56:13;;;;;;;19.40;12.00;;;;;;;;;;7360804;19;19995;-82
2023/12/04 09:58:40;;;;;;;18.92;11.85;;;;;;;;;;7365103;19;20006;-80
2023/12/04 10:01:06;;;;;;;18.75;11.93;;;;;;;;;;7362344;19;20439;-87
2023/12/04 10:03:32;;;;;;;19.58;12.07;;;;;;;;;;7366101;19;20006;-86
2023/12/04 10:05:57;;;;;;;20.88;12.85;;;;;;;;;;7368586;19;20006;-84
2023/12/04 10:08:23;;;;;;;19.67;13.13;;;;;;;;;;7372721;19;20130;-82
2023/12/04 10:10:48;;;;;;;18.67;12.43;;;;;;;;;;7370096;19;20015;-85
2023/12/04 10:13:13;;;;;;;22.75;12.95;;;;;;;;;;7362581;19;20041;-83
2023/12/04 10:15:48;;;;;;;18.85;11.95;;;;;;;;;;7368757;19;20003;-80
2023/12/04 10:18:26;;;;;;;20.05;11.68;;;;;;;;;;7365645;19;20010;-86
2023/12/04 10:20:55;;;;;;;18.00;11.45;;;;;;;;;;7369977;19;20002;-80
2023/12/04 10:23:20;;;;;;;17.80;12.07;;;;;;;;;;7368697;19;20015;-84
2023/12/04 10:25:45;;;;;;;16.23;10.85;;;;;;;;;;7370826;19;19994;-84
2023/12/04 10:28:11;;;;;;;17.92;10.60;;;;;;;;;;7371052;19;20006;-83
2023/12/04 10:30:36;;;;;;;18.95;11.20;;;;;;;;;;7370558;19;19999;-80
2023/12/04 10:33:04;;;;;;;16.98;11.55;;;;;;;;;;7367088;19;20030;-86
2023/12/04 10:35:30;;;;;;;19.08;11.98;;;;;;;;;;7374981;19;20005;-81
2023/12/04 10:37:56;;;;;;;18.35;11.70;;;;;;;;;;7369628;19;19998;-84
2023/12/04 10:40:25;;;;;;;19.70;13.15;;;;;;;;;;7365118;19;20642;-82
2023/12/04 10:42:50;;;;;;;17.73;11.35;;;;;;;;;;7371800;19;20744;-82
2023/12/04 10:45:15;;;;;;;19.33;11.95;;;;;;;;;;7368915;19;20011;-83
2023/12/04 10:47:40;;;;;;;19.80;12.15;;;;;;;;;;7368963;19;20082;-83
2023/12/04 10:50:07;;;;;;;18.58;11.65;;;;;;;;;;7371240;19;20032;-86
2023/12/04 10:52:33;;;;;;;18.67;12.43;;;;;;;;;;7368443;19;20278;-84
2023/12/04 10:54:59;;;;;;;19.35;12.60;;;;;;;;;;7369859;19;20000;-89
2023/12/04 10:57:29;;;;;;;18.63;11.93;;;;;;;;;;7365976;19;20002;-82
2023/12/04 10:59:57;;;;;;;18.83;12.30;;;;;;;;;;7371279;19;20010;-85
2023/12/04 11:02:26;;;;;;;19.75;13.68;;;;;;;;;;7363010;19;20055;-83
2023/12/04 11:04:54;;;;;;;20.25;13.68;;;;;;;;;;7368980;19;20002;-83
2023/12/04 11:07:20;;;;;;;19.85;14.27;;;;;;;;;;7366747;19;20003;-82
2023/12/04 11:09:47;;;;;;;21.33;13.85;;;;;;;;;;7368508;19;20005;-79
2023/12/04 11:12:13;;;;;;;22.88;14.52;;;;;;;;;;7364382;19;20103;-82
2023/12/04 11:14:42;;;;;;;18.75;13.15;;;;;;;;;;7365926;19;20010;-80
2023/12/04 11:17:08;;;;;;;16.92;11.73;;;;;;;;;;7363406;19;19995;-87
2023/12/04 11:19:45;;;;;;;19.65;13.30;;;;;;;;;;7367966;19;20030;-83
2023/12/04 11:22:11;;;;;;;20.48;13.35;;;;;;;;;;7364650;19;20013;-81
2023/12/04 11:24:37;;;;;;;18.98;13.13;;;;;;;;;;7364198;19;19995;-85
2023/12/04 11:27:02;;;;;;;20.42;13.18;;;;;;;;;;7366784;19;20015;-87
2023/12/04 11:29:28;;;;;;;18.27;12.25;;;;;;;;;;7363869;19;20221;-80
2023/12/04 11:31:54;;;;;;;19.13;12.80;;;;;;;;;;7362607;19;20674;-82
2023/12/04 11:34:19;;;;;;;18.80;12.65;;;;;;;;;;7365207;19;20054;-84
2023/12/04 11:36:44;;;;;;;17.85;12.18;;;;;;;;;;7366378;19;20727;-80
2023/12/04 11:39:10;;;;;;;17.15;12.05;;;;;;;;;;7353736;19;20032;-84
2023/12/04 11:41:36;;;;;;;15.77;11.60;;;;;;;;;;7367295;19;20003;-84
2023/12/04 11:44:01;;;;;;;17.48;12.35;;;;;;;;;;7366631;19;20094;-80
2023/12/04 11:46:30;;;;;;;18.90;12.55;;;;;;;;;;7361042;19;20006;-86
2023/12/04 11:48:56;;;;;;;15.30;10.68;;;;;;;;;;7349154;19;20003;-83
2023/12/04 11:51:39;;;;;;;17.70;11.45;;;;;;;;;;7364314;19;20006;-81
2023/12/04 11:54:07;;;;;;;13.43;9.37;;;;;;;;;;7349890;19;20451;-85
2023/12/04 11:56:32;;;;;;;15.48;11.57;;;;;;;;;;7357956;19;20007;-82
2023/12/04 11:59:04;;;;;;;15.05;10.93;;;;;;;;;;7364656;19;20011;-82
2023/12/04 12:01:36;;;;;;;13.60;10.32;;;;;;;;;;7358370;19;20538;-83
2023/12/04 12:04:04;;;;;;;12.93;9.63;;;;;;;;;;7361349;19;20003;-83
2023/12/04 12:06:29;;;;;;;14.02;9.70;;;;;;;;;;7347588;19;20971;-81
2023/12/04 12:08:55;;;;;;;12.00;8.65;;;;;;;;;;7364114;19;20002;-85
2023/12/04 12:11:21;;;;;;;11.65;8.57;;;;;;;;;;7362542;19;20010;-85
2023/12/04 12:13:47;;;;;;;13.63;9.15;;;;;;;;;;7363031;19;20432;-84
2023/12/04 12:16:12;;;;;;;14.30;9.60;;;;;;;;;;7353677;19;20010;-84
2023/12/04 12:18:38;;;;;;;14.77;10.50;;;;;;;;;;7361166;19;20109;-83
2023/12/04 12:21:03;;;;;;;14.07;10.43;;;;;;;;;;7364334;19;20446;-81
2023/12/04 12:23:29;;;;;;;15.88;11.18;;;;;;;;;;7352432;19;20090;-84
2023/12/04 12:25:54;;;;;;;15.45;10.85;;;;;;;;;;7363268;19;20012;-81
2023/12/04 12:28:19;;;;;;;15.18;11.07;;;;;;;;;;7343982;19;20094;-85
2023/12/04 12:30:45;;;;;;;15.93;11.95;;;;;;;;;;7364853;19;20007;-82
2023/12/04 12:33:12;;;;;;;16.85;12.18;;;;;;;;;;7355836;19;19991;-85
2023/12/04 12:35:38;;;;;;;16.65;12.60;;;;;;;;;;7362926;19;20003;-82
2023/12/04 12:38:03;;;;;;;16.30;12.23;;;;;;;;;;7363818;19;20011;-85
2023/12/04 12:40:29;;;;;;;17.77;13.40;;;;;;;;;;7358619;19;20803;-81
2023/12/04 12:43:03;;;;;;;16.67;12.52;;;;;;;;;;7361189;19;20243;-83
2023/12/04 12:45:28;;;;;;;17.90;13.02;;;;;;;;;;7362482;19;20006;-82
2023/12/04 12:47:53;;;;;;;17.38;12.68;;;;;;;;;;7365249;19;20035;-83
2023/12/04 12:50:18;;;;;;;17.85;13.38;;;;;;;;;;7361482;19;19997;-84
2023/12/04 12:52:44;;;;;;;18.58;12.95;;;;;;;;;;7357125;19;20288;-83
2023/12/04 12:55:09;;;;;;;17.60;12.93;;;;;;;;;;7363269;19;19998;-81
2023/12/04 12:57:35;;;;;;;18.70;13.55;;;;;;;;;;7348155;19;20211;-86
2023/12/04 13:00:00;;;;;;;17.80;13.00;;;;;;;;;;7364325;19;20003;-80
2023/12/04 13:02:25;;;;;;;16.63;12.38;;;;;;;;;;7356887;19;19999;-80
2023/12/04 13:04:50;;;;;;;16.77;12.52;;;;;;;;;;7365000;19;20010;-81
2023/12/04 13:07:15;;;;;;;16.30;11.63;;;;;;;;;;7342495;19;20511;-84
2023/12/04 13:09:41;;;;;;;18.17;13.13;;;;;;;;;;7363249;19;19994;-88
2023/12/04 13:12:06;;;;;;;15.38;11.50;;;;;;;;;;7358054;19;20018;-85
2023/12/04 13:14:34;;;;;;;14.73;10.38;;;;;;;;;;7345772;19;20258;-81
2023/12/04 13:16:59;;;;;;;15.43;11.63;;;;;;;;;;7354230;19;20451;-81
2023/12/04 13:19:24;;;;;;;17.25;12.13;;;;;;;;;;7350164;19;20006;-89
2023/12/04 13:21:50;;;;;;;16.60;12.07;;;;;;;;;;7346939;19;19995;-82
2023/12/04 13:24:15;;;;;;;16.60;12.38;;;;;;;;;;7357552;19;20427;-83
2023/12/04 13:26:40;;;;;;;16.48;12.40;;;;;;;;;;7357980;19;20344;-84
2023/12/04 13:29:06;;;;;;;16.63;11.82;;;;;;;;;;7350663;19;20001;-83
2023/12/04 13:31:32;;;;;;;17.45;11.82;;;;;;;;;;7348114;19;20763;-81
2023/12/04 13:33:57;;;;;;;16.67;11.40;;;;;;;;;;7365054;19;20701;-83
2023/12/04 13:36:23;;;;;;;14.18;10.55;;;;;;;;;;7363780;19;20532;-84
2023/12/04 13:38:49;;;;;;;13.13;9.80;;;;;;;;;;7361775;19;20014;-83
2023/12/04 13:43:59;;;;;;;13.52;10.25;;;;;;;;;;7363225;19;20283;-82
2023/12/04 13:46:24;;;;;;;14.70;10.57;;;;;;;;;;7361347;19;20529;-81
2023/12/04 13:48:50;;;;;;;14.13;10.13;;;;;;;;;;7361457;19;20081;-80
2023/12/04 13:51:15;;;;;;;14.80;9.90;;;;;;;;;;7367017;19;20093;-81
2023/12/04 13:53:44;;;;;;;13.88;9.93;;;;;;;;;;7364804;19;20002;-80
2023/12/04 13:56:25;;;;;;;13.18;9.50;;;;;;;;;;7364920;19;20006;-79
2023/12/04 13:58:59;;;;;;;13.38;9.52;;;;;;;;;;7360069;19;20469;-80
2023/12/04 14:01:28;;;;;;;13.52;9.35;;;;;;;;;;7361345;19;20361;-79
2023/12/04 14:03:53;;;;;;;14.75;10.50;;;;;;;;;;7356195;19;20034;-80
2023/12/04 14:06:18;;;;;;;15.40;11.05;;;;;;;;;;7366674;19;19998;-84
2023/12/04 14:08:45;;;;;;;15.05;10.25;;;;;;;;;;7362722;19;20006;-84
2023/12/04 14:11:11;;;;;;;15.02;10.75;;;;;;;;;;7369743;19;20014;-83
2023/12/04 14:13:36;;;;;;;14.27;10.27;;;;;;;;;;7355271;19;20015;-81
2023/12/04 14:16:02;;;;;;;15.95;9.57;;;;;;;;;;7371222;19;20014;-84